If you wish to contribute or participate in the discussions about articles you are invited to join SKYbrary as a registered user

 Actions

Rennes/Saint-Jacques Airport

From SKYbrary Wiki

LFRN /
Revision as of 12:51, 18 November 2014 by Timo.Kouwenhoven (talk | contribs) (Created page with "{{Airport |Airport_Name=Rennes/Saint-Jacques Airport |ICAO_Region=EUR |ICAO_Territory=LF |IATA Code=RNS |Elevation=37.795200 |Location=Saint-Jacques |Main city served=Rennes |...")
(diff) ← Older revision | Latest revision (diff) | Newer revision → (diff)
Airport
ICAO: LFRN – IATA: RNS
Summary
Name Rennes/Saint-Jacques Airport
Region Europe
Territory France FR.gif
Location Saint-Jacques
Serving Rennes
Elevation 37.795 m
124 ft
124 ft37.795 m
Coordinates 48° 4' 16.02" N, 1° 43' 47.49" W
Runways
Designator Length Width Surface ROPS
10/28 2100 m6,889.764 ft
45 m147.638 ft
ASP yes/yes
14/32 850 m2,788.714 ft
30 m98.425 ft
ASP yes/yes


METAR
Observation LFRN 220700Z AUTO 00000KT 0250 0200 R28/0400D R10/0225N FG VV/// 04/04 Q1024 NOSIG
Station Rennes
Date/Time 22 October 2019 07:00:00
Wind direction
Wind speed 00 kts
Lowest cloud amount n/a
Temperature 10°C
Dew point 0°C
Humidity 49%
QNH 1024 hPa
Weather condition n/a